createdAt,value
2022-10-01T00:01:25.032Z,3.20
2022-10-01T00:03:53.193Z,2.88
2022-10-01T00:06:22.493Z,3.20
2022-10-01T00:08:50.877Z,2.88
2022-10-01T00:11:24.511Z,2.67
2022-10-01T00:13:53.036Z,3.33
2022-10-01T00:16:23.540Z,3.20
2022-10-01T00:18:50.816Z,2.95
2022-10-01T00:21:23.400Z,3.40
2022-10-01T00:23:59.605Z,3.22
2022-10-01T00:26:30.263Z,2.75
2022-10-01T00:28:59.934Z,3.33
2022-10-01T00:31:33.096Z,2.65
2022-10-01T00:34:02.935Z,3.08
2022-10-01T00:36:31.839Z,2.75
2022-10-01T00:39:00.689Z,2.60
2022-10-01T00:41:35.063Z,3.05
2022-10-01T00:44:24.739Z,3.20
2022-10-01T00:46:54.996Z,3.60
2022-10-01T00:49:25.984Z,2.30
2022-10-01T00:52:00.296Z,3.05
2022-10-01T00:54:34.834Z,2.67
2022-10-01T00:57:05.199Z,2.50
2022-10-01T00:59:33.620Z,3.05
2022-10-01T01:02:00.942Z,2.78
2022-10-01T01:04:28.634Z,2.55
2022-10-01T01:06:59.601Z,2.92
2022-10-01T01:09:31.339Z,2.70
2022-10-01T01:12:11.546Z,2.45
2022-10-01T01:15:17.413Z,2.42
2022-10-01T01:18:05.689Z,2.80
2022-10-01T01:20:51.743Z,2.63
2022-10-01T01:23:19.105Z,2.97
2022-10-01T01:26:21.261Z,2.63
2022-10-01T01:28:53.686Z,2.55
2022-10-01T01:31:32.822Z,2.75
2022-10-01T01:34:03.650Z,2.63
2022-10-01T01:36:37.159Z,3.30
2022-10-01T01:39:09.637Z,2.58
2022-10-01T01:41:48.358Z,2.45
2022-10-01T01:44:17.794Z,3.20
2022-10-01T01:46:49.608Z,2.72
2022-10-01T01:49:20.206Z,2.83
2022-10-01T01:52:08.027Z,2.73
2022-10-01T01:54:36.647Z,2.72
2022-10-01T01:57:04.673Z,2.50
2022-10-01T01:59:33.952Z,2.55
2022-10-01T02:02:01.749Z,2.40
2022-10-01T02:05:03.817Z,2.58
2022-10-01T02:07:46.019Z,2.83
2022-10-01T02:10:38.036Z,2.92
2022-10-01T02:13:22.238Z,2.42
2022-10-01T02:16:15.149Z,2.50
2022-10-01T02:18:51.234Z,2.58
2022-10-01T02:21:52.462Z,2.63
2022-10-01T02:24:28.525Z,2.67
2022-10-01T02:26:57.557Z,2.20
2022-10-01T02:29:24.878Z,2.55
2022-10-01T02:31:55.846Z,2.35
2022-10-01T02:34:28.383Z,2.63
2022-10-01T02:36:58.745Z,2.58
2022-10-01T02:39:29.899Z,2.38
2022-10-01T02:42:18.471Z,2.70
2022-10-01T02:44:49.568Z,2.67
2022-10-01T02:47:35.248Z,2.80
2022-10-01T02:50:03.183Z,2.70
2022-10-01T02:52:39.117Z,2.83
2022-10-01T02:55:29.008Z,2.72
2022-10-01T02:57:57.129Z,2.80
2022-10-01T03:00:27.093Z,2.88
2022-10-01T03:02:54.683Z,2.40
2022-10-01T03:05:22.394Z,2.92
2022-10-01T03:07:49.588Z,2.22
2022-10-01T03:10:16.996Z,2.78
2022-10-01T03:12:46.800Z,2.55
2022-10-01T03:15:16.481Z,3.22
2022-10-01T03:17:43.658Z,2.72
2022-10-01T03:20:12.474Z,2.47
2022-10-01T03:22:39.561Z,2.42
2022-10-01T03:25:06.917Z,2.78
2022-10-01T03:27:34.139Z,2.60
2022-10-01T03:30:01.201Z,2.58
2022-10-01T03:32:30.943Z,2.53
2022-10-01T03:34:58.124Z,2.75
2022-10-01T03:37:25.670Z,3.00
2022-10-01T03:39:52.711Z,3.00
2022-10-01T03:42:20.022Z,2.70
2022-10-01T03:44:47.503Z,2.60
2022-10-01T03:47:14.758Z,2.97
2022-10-01T03:49:41.924Z,2.60
2022-10-01T03:52:09.109Z,2.50
2022-10-01T03:54:36.239Z,2.80
2022-10-01T03:57:03.586Z,3.03
2022-10-01T03:59:30.762Z,2.63
2022-10-01T04:01:57.909Z,3.33
2022-10-01T04:04:25.806Z,3.63
2022-10-01T04:06:52.931Z,3.13
2022-10-01T04:09:20.205Z,2.90
2022-10-01T04:11:47.803Z,2.80
2022-10-01T04:14:15.034Z,3.15
2022-10-01T04:16:42.209Z,3.10
2022-10-01T04:19:09.779Z,2.88
2022-10-01T04:21:39.348Z,3.30
2022-10-01T04:24:06.879Z,2.88
2022-10-01T04:26:34.435Z,3.80
2022-10-01T04:29:01.733Z,3.65
2022-10-01T04:31:35.427Z,3.10
2022-10-01T04:34:04.029Z,3.38
2022-10-01T04:36:31.610Z,3.42
2022-10-01T04:39:02.393Z,3.03
2022-10-01T04:41:31.259Z,2.85
2022-10-01T04:44:00.313Z,3.17
2022-10-01T04:46:30.650Z,2.83
2022-10-01T04:48:58.219Z,3.65
2022-10-01T04:51:26.219Z,3.28
2022-10-01T04:53:53.494Z,3.35
2022-10-01T04:56:20.955Z,3.28
2022-10-01T04:58:48.700Z,3.13
2022-10-01T05:01:16.459Z,4.38
2022-10-01T05:03:43.488Z,8.70
2022-10-01T05:06:11.051Z,5.00
2022-10-01T05:08:39.219Z,4.90
2022-10-01T05:11:07.049Z,4.18
2022-10-01T05:13:34.726Z,3.35
2022-10-01T05:16:04.008Z,4.13
2022-10-01T05:18:32.481Z,4.80
2022-10-01T05:21:04.500Z,4.82
2022-10-01T05:23:33.023Z,4.00
2022-10-01T05:26:00.984Z,5.18
2022-10-01T05:28:28.355Z,5.00
2022-10-01T05:30:59.700Z,4.75
2022-10-01T05:33:29.046Z,3.92
2022-10-01T05:35:59.940Z,5.40
2022-10-01T05:38:27.146Z,4.13
2022-10-01T05:40:54.519Z,4.70
2022-10-01T05:43:22.213Z,5.07
2022-10-01T05:45:50.075Z,4.72
2022-10-01T05:48:17.487Z,5.32
2022-10-01T05:50:45.069Z,8.10
2022-10-01T05:53:14.100Z,9.00
2022-10-01T05:55:41.791Z,12.57
2022-10-01T05:58:11.467Z,13.88
2022-10-01T06:00:41.384Z,13.18
2022-10-01T06:03:13.079Z,6.80
2022-10-01T06:08:09.795Z,6.72
2022-10-01T06:10:38.004Z,7.05
2022-10-01T06:13:06.930Z,4.88
2022-10-01T06:15:40.130Z,5.80
2022-10-01T06:21:40.320Z,8.25
2022-10-01T06:24:18.476Z,4.93
2022-10-01T06:26:50.404Z,5.43
2022-10-01T06:29:22.505Z,5.28
2022-10-01T06:31:49.976Z,5.78
2022-10-01T06:34:17.242Z,6.15
2022-10-01T06:36:44.369Z,5.13
2022-10-01T06:39:11.423Z,5.13
2022-10-01T06:41:38.628Z,4.78
2022-10-01T06:44:10.510Z,5.05
2022-10-01T06:46:37.848Z,6.93
2022-10-01T06:49:05.014Z,11.77
2022-10-01T06:51:51.308Z,14.20
2022-10-01T06:54:22.825Z,11.13
2022-10-01T06:59:17.884Z,11.48
2022-10-01T07:01:45.095Z,8.70
2022-10-01T07:04:13.160Z,9.68
2022-10-01T07:06:48.820Z,17.02
2022-10-01T07:09:32.705Z,13.13
2022-10-01T07:12:04.187Z,10.50
2022-10-01T07:17:27.632Z,8.40
2022-10-01T07:20:04.800Z,6.70
2022-10-01T07:25:06.641Z,6.60
2022-10-01T07:27:47.213Z,6.97
2022-10-01T07:30:25.260Z,6.90
2022-10-01T07:32:54.447Z,6.78
2022-10-01T07:35:24.889Z,6.78
2022-10-01T07:37:52.306Z,6.30
2022-10-01T07:40:20.054Z,6.03
2022-10-01T07:43:03.680Z,5.60
2022-10-01T07:45:54.593Z,6.20
2022-10-01T07:51:38.153Z,4.68
2022-10-01T07:54:14.335Z,4.28
2022-10-01T07:56:48.691Z,3.78
2022-10-01T08:02:38.652Z,4.63
2022-10-01T08:05:37.785Z,3.72
2022-10-01T08:08:09.542Z,3.33
2022-10-01T08:11:13.685Z,3.33
2022-10-01T08:13:43.049Z,3.40
2022-10-01T08:16:15.658Z,4.60
2022-10-01T08:18:59.875Z,3.00
2022-10-01T08:21:31.401Z,3.40
2022-10-01T08:24:06.478Z,2.85
2022-10-01T08:27:07.791Z,2.83
2022-10-01T08:29:35.507Z,2.47
2022-10-01T08:32:14.402Z,2.97
2022-10-01T08:34:41.679Z,2.75
2022-10-01T08:37:12.039Z,2.45
2022-10-01T08:39:39.411Z,2.83
2022-10-01T08:42:29.631Z,2.80
2022-10-01T08:45:09.338Z,2.13
2022-10-01T08:47:41.499Z,2.50
2022-10-01T08:50:35.374Z,2.40
2022-10-01T08:53:20.631Z,2.17
2022-10-01T08:55:57.628Z,2.47
2022-10-01T08:58:38.217Z,2.15
2022-10-01T09:01:18.518Z,3.05
2022-10-01T09:03:49.598Z,2.55
2022-10-01T09:06:46.228Z,2.45
2022-10-01T09:10:15.753Z,2.13
2022-10-01T09:13:24.928Z,2.08
2022-10-01T09:16:24.152Z,2.28
2022-10-01T09:19:47.962Z,2.10
2022-10-01T09:22:39.316Z,3.03
2022-10-01T09:25:29.271Z,2.47
2022-10-01T09:28:24.409Z,2.60
2022-10-01T09:31:07.405Z,2.20
2022-10-01T09:33:41.636Z,2.10
2022-10-01T09:36:18.122Z,1.77
2022-10-01T09:38:52.441Z,2.15
2022-10-01T09:41:20.227Z,2.30
2022-10-01T09:43:48.270Z,1.63
2022-10-01T09:46:17.598Z,2.00
2022-10-01T09:49:03.492Z,1.50
2022-10-01T09:52:27.479Z,1.17
2022-10-01T09:55:38.860Z,1.48
2022-10-01T10:01:34.174Z,1.25
2022-10-01T10:04:04.441Z,1.20
2022-10-01T10:06:44.236Z,1.23
2022-10-01T10:09:20.401Z,1.20
2022-10-01T10:11:51.955Z,1.20
2022-10-01T10:14:44.978Z,1.10
2022-10-01T10:17:17.739Z,1.38
2022-10-01T10:19:51.906Z,1.17
2022-10-01T10:22:28.201Z,1.33
2022-10-01T10:25:13.034Z,1.02
2022-10-01T10:28:08.035Z,1.30
2022-10-01T10:31:02.851Z,1.40
2022-10-01T10:33:47.229Z,0.93
2022-10-01T10:36:43.063Z,1.75
2022-10-01T10:39:38.423Z,1.50
2022-10-01T10:42:15.713Z,1.20
2022-10-01T10:44:52.819Z,1.17
2022-10-01T10:47:28.657Z,1.33
2022-10-01T10:50:44.431Z,1.13
2022-10-01T10:56:29.685Z,1.70
2022-10-01T10:59:26.622Z,1.50
2022-10-01T11:02:19.409Z,1.25
2022-10-01T11:06:02.386Z,1.33
2022-10-01T11:08:40.457Z,1.13
2022-10-01T11:11:44.058Z,1.35
2022-10-01T11:15:24.313Z,1.40
2022-10-01T11:18:15.809Z,1.13
2022-10-01T11:21:47.218Z,1.30
2022-10-01T11:24:48.475Z,1.58
2022-10-01T11:28:00.643Z,1.10
2022-10-01T11:30:49.714Z,1.42
2022-10-01T11:34:09.454Z,1.10
2022-10-01T11:36:42.888Z,1.30
2022-10-01T11:39:43.481Z,1.40
2022-10-01T11:42:29.188Z,1.40
2022-10-01T11:45:24.623Z,1.75
2022-10-01T11:48:14.590Z,2.38
2022-10-01T11:51:05.278Z,3.40
2022-10-01T11:54:27.877Z,2.35
2022-10-01T11:57:36.244Z,2.97
2022-10-01T12:00:33.213Z,1.85
2022-10-01T12:03:46.811Z,2.03
2022-10-01T12:06:49.790Z,2.00
2022-10-01T12:09:52.451Z,2.17
2022-10-01T12:12:39.638Z,2.10
2022-10-01T12:15:55.764Z,2.03
2022-10-01T12:18:59.124Z,1.98
2022-10-01T12:22:04.795Z,2.00
2022-10-01T12:25:03.032Z,2.47
2022-10-01T12:28:28.967Z,3.08
2022-10-01T12:31:36.314Z,3.08
2022-10-01T12:34:37.300Z,3.83
2022-10-01T12:37:28.365Z,4.00
2022-10-01T12:40:49.281Z,3.55
2022-10-01T12:43:40.126Z,2.50
2022-10-01T12:46:54.505Z,2.33
2022-10-01T12:49:58.024Z,1.88
2022-10-01T12:53:29.353Z,2.10
2022-10-01T12:56:43.229Z,1.67
2022-10-01T12:59:58.459Z,2.10
2022-10-01T13:03:02.639Z,1.98
2022-10-01T13:05:47.488Z,2.20
2022-10-01T13:09:11.283Z,2.72
2022-10-01T13:12:25.827Z,3.80
2022-10-01T13:15:12.858Z,3.95
2022-10-01T13:18:52.775Z,4.05
2022-10-01T13:21:34.726Z,3.67
2022-10-01T13:24:43.762Z,3.63
2022-10-01T13:27:37.971Z,4.85
2022-10-01T13:30:35.162Z,2.58
2022-10-01T13:33:07.004Z,3.17
2022-10-01T13:35:44.158Z,5.78
2022-10-01T13:38:45.539Z,5.47
2022-10-01T13:41:27.326Z,1.80
2022-10-01T13:44:30.393Z,3.20
2022-10-01T13:47:15.028Z,1.75
2022-10-01T13:50:57.583Z,2.13
2022-10-01T13:53:39.194Z,2.20
2022-10-01T13:56:17.394Z,2.85
2022-10-01T13:59:08.477Z,2.45
2022-10-01T14:01:45.057Z,1.88
2022-10-01T14:04:38.133Z,2.08
2022-10-01T14:07:41.039Z,1.73
2022-10-01T14:10:19.374Z,1.40
2022-10-01T14:13:12.473Z,1.90
2022-10-01T14:16:33.947Z,1.60
2022-10-01T14:19:06.796Z,1.80
2022-10-01T14:22:31.768Z,1.83
2022-10-01T14:25:55.246Z,2.17
2022-10-01T14:29:43.411Z,2.17
2022-10-01T14:32:55.585Z,2.75
2022-10-01T14:35:40.323Z,2.40
2022-10-01T14:38:23.550Z,2.67
2022-10-01T14:40:54.342Z,3.33
2022-10-01T14:43:37.510Z,3.17
2022-10-01T14:49:25.292Z,3.13
2022-10-01T14:55:41.088Z,1.75
2022-10-01T14:58:40.301Z,1.80
2022-10-01T15:01:31.476Z,2.30
2022-10-01T15:04:22.991Z,1.50
2022-10-01T15:07:17.731Z,1.45
2022-10-01T15:09:47.483Z,1.52
2022-10-01T15:12:32.348Z,1.40
2022-10-01T15:15:04.321Z,1.50
2022-10-01T15:17:37.056Z,1.60
2022-10-01T15:20:05.356Z,1.85
2022-10-01T15:22:40.810Z,1.73
2022-10-01T15:25:53.028Z,1.35
2022-10-01T15:28:35.508Z,1.50
2022-10-01T15:31:10.707Z,1.85
2022-10-01T15:33:54.478Z,1.80
2022-10-01T15:36:48.320Z,2.20
2022-10-01T15:39:28.948Z,2.75
2022-10-01T15:42:18.781Z,2.33
2022-10-01T15:45:00.151Z,2.10
2022-10-01T15:47:57.019Z,1.85
2022-10-01T15:50:47.376Z,1.60
2022-10-01T15:53:41.341Z,2.00
2022-10-01T15:59:59.166Z,3.15
2022-10-01T16:02:35.820Z,2.78
2022-10-01T16:05:14.514Z,2.80
2022-10-01T16:07:58.636Z,2.60
2022-10-01T16:10:48.671Z,2.47
2022-10-01T16:13:57.434Z,2.10
2022-10-01T16:16:57.020Z,1.85
2022-10-01T16:20:23.311Z,3.63
2022-10-01T16:23:35.381Z,4.03
2022-10-01T16:26:41.098Z,2.80
2022-10-01T16:29:26.692Z,3.38
2022-10-01T16:32:04.970Z,3.33
2022-10-01T16:34:48.350Z,5.35
2022-10-01T16:37:28.862Z,4.45
2022-10-01T16:40:05.798Z,3.85
2022-10-01T16:42:38.428Z,3.85
2022-10-01T16:45:12.371Z,3.42
2022-10-01T16:47:55.917Z,3.65
2022-10-01T16:50:34.481Z,4.38
2022-10-01T16:53:16.305Z,3.10
2022-10-01T16:56:27.334Z,5.80
2022-10-01T16:59:03.049Z,3.97
2022-10-01T17:01:35.632Z,4.47
2022-10-01T17:04:05.569Z,4.40
2022-10-01T17:06:43.456Z,4.15
2022-10-01T17:09:20.822Z,4.88
2022-10-01T17:11:52.015Z,4.95
2022-10-01T17:14:31.860Z,5.53
2022-10-01T17:17:10.428Z,5.75
2022-10-01T17:19:56.246Z,5.55
2022-10-01T17:22:30.387Z,3.70
2022-10-01T17:25:27.481Z,3.63
2022-10-01T17:28:50.469Z,3.70
2022-10-01T17:31:28.990Z,3.63
2022-10-01T17:34:05.585Z,3.92
2022-10-01T17:36:50.538Z,3.92
2022-10-01T17:39:49.500Z,4.93
2022-10-01T17:42:42.029Z,4.28
2022-10-01T17:48:14.037Z,4.03
2022-10-01T17:50:46.080Z,3.75
2022-10-01T17:53:20.821Z,3.75
2022-10-01T17:55:51.055Z,3.38
2022-10-01T17:58:27.595Z,3.85
2022-10-01T18:00:54.970Z,3.55
2022-10-01T18:03:22.693Z,2.70
2022-10-01T18:05:51.455Z,3.47
2022-10-01T18:08:26.442Z,5.68
2022-10-01T18:11:08.230Z,5.55
2022-10-01T18:13:37.831Z,6.30
2022-10-01T18:16:11.203Z,7.80
2022-10-01T18:21:26.697Z,6.57
2022-10-01T18:24:01.863Z,6.85
2022-10-01T18:26:31.949Z,6.47
2022-10-01T18:28:59.268Z,6.35
2022-10-01T18:31:38.543Z,6.03
2022-10-01T18:34:16.047Z,5.38
2022-10-01T18:37:07.427Z,6.05
2022-10-01T18:39:47.523Z,5.57
2022-10-01T18:42:27.606Z,5.63
2022-10-01T18:45:01.335Z,5.70
2022-10-01T18:47:59.054Z,5.60
2022-10-01T18:50:33.252Z,5.90
2022-10-01T18:53:22.076Z,5.68
2022-10-01T18:56:11.567Z,6.35
2022-10-01T18:59:06.609Z,6.75
2022-10-01T19:01:40.710Z,6.20
2022-10-01T19:04:08.330Z,6.88
2022-10-01T19:07:13.060Z,7.00
2022-10-01T19:10:14.590Z,6.50
2022-10-01T19:15:43.753Z,5.97
2022-10-01T19:21:06.565Z,5.35
2022-10-01T19:23:37.027Z,4.65
2022-10-01T19:26:04.402Z,4.50
2022-10-01T19:29:10.198Z,5.10
2022-10-01T19:31:45.651Z,4.57
2022-10-01T19:34:15.878Z,5.43
2022-10-01T19:36:53.923Z,5.55
2022-10-01T19:39:26.926Z,5.25
2022-10-01T19:42:06.541Z,5.15
2022-10-01T19:44:54.864Z,5.10
2022-10-01T19:47:36.608Z,5.30
2022-10-01T19:50:20.559Z,4.97
2022-10-01T19:52:52.046Z,5.15
2022-10-01T19:55:25.094Z,5.13
2022-10-01T19:57:53.334Z,5.47
2022-10-01T20:00:23.132Z,5.30
2022-10-01T20:03:11.766Z,4.90
2022-10-01T20:05:57.685Z,4.57
2022-10-01T20:08:36.019Z,6.40
2022-10-01T20:11:14.504Z,5.80
2022-10-01T20:14:02.984Z,5.35
2022-10-01T20:16:43.912Z,5.60
2022-10-01T20:19:31.035Z,6.47
2022-10-01T20:22:26.560Z,5.85
2022-10-01T20:25:33.797Z,6.28
2022-10-01T20:28:25.485Z,6.18
2022-10-01T20:31:23.230Z,5.85
2022-10-01T20:34:00.275Z,5.97
2022-10-01T20:36:50.350Z,6.50
2022-10-01T20:39:26.203Z,6.50
2022-10-01T20:41:56.335Z,7.00
2022-10-01T20:44:36.367Z,6.28
2022-10-01T20:47:11.973Z,6.13
2022-10-01T20:50:22.638Z,5.53
2022-10-01T20:53:10.349Z,5.05
2022-10-01T20:56:09.905Z,5.03
2022-10-01T20:58:46.629Z,5.47
2022-10-01T21:01:21.900Z,5.45
2022-10-01T21:04:19.685Z,5.25
2022-10-01T21:06:52.393Z,5.03
2022-10-01T21:12:10.425Z,4.90
2022-10-01T21:14:56.864Z,4.93
2022-10-01T21:17:42.482Z,5.35
2022-10-01T21:20:24.938Z,4.47
2022-10-01T21:23:11.611Z,4.60
2022-10-01T21:25:52.776Z,4.97
2022-10-01T21:28:57.927Z,4.95
2022-10-01T21:31:29.918Z,4.72
2022-10-01T21:34:24.559Z,4.93
2022-10-01T21:36:55.960Z,5.25
2022-10-01T21:39:32.010Z,4.43
2022-10-01T21:42:08.790Z,5.85
2022-10-01T21:45:15.255Z,5.50
2022-10-01T21:47:59.794Z,5.47
2022-10-01T21:50:38.562Z,5.55
2022-10-01T21:53:39.153Z,5.63
2022-10-01T21:56:29.809Z,4.85
2022-10-01T22:01:54.556Z,5.57
2022-10-01T22:07:06.291Z,4.50
2022-10-01T22:09:49.285Z,4.15
2022-10-01T22:12:16.983Z,3.50
2022-10-01T22:14:46.756Z,3.40
2022-10-01T22:17:21.058Z,3.85
2022-10-01T22:19:52.963Z,4.03
2022-10-01T22:22:31.631Z,3.95
2022-10-01T22:25:01.075Z,4.25
2022-10-01T22:27:35.248Z,5.07
2022-10-01T22:30:02.410Z,4.63
2022-10-01T22:32:36.579Z,3.95
2022-10-01T22:35:12.874Z,4.28
2022-10-01T22:37:47.022Z,4.03
2022-10-01T22:40:23.974Z,4.57
2022-10-01T22:43:05.670Z,4.03
2022-10-01T22:45:43.791Z,3.75
2022-10-01T22:48:21.669Z,3.63
2022-10-01T22:51:12.708Z,3.90
2022-10-01T22:54:09.758Z,3.55
2022-10-01T22:57:06.396Z,3.88
2022-10-01T22:59:51.522Z,3.70
2022-10-01T23:02:38.127Z,4.47
2022-10-01T23:05:33.219Z,4.10
2022-10-01T23:08:30.357Z,3.25
2022-10-01T23:11:14.842Z,3.60
2022-10-01T23:14:04.093Z,3.70
2022-10-01T23:17:02.653Z,2.90
2022-10-01T23:19:59.208Z,3.13
2022-10-01T23:22:51.474Z,3.10
2022-10-01T23:25:28.048Z,2.95
2022-10-01T23:28:27.771Z,3.58
2022-10-01T23:31:22.761Z,3.45
2022-10-01T23:34:23.980Z,3.05
2022-10-01T23:37:09.876Z,3.38
2022-10-01T23:39:50.667Z,3.83
2022-10-01T23:42:29.009Z,4.63
2022-10-01T23:45:18.970Z,4.05
2022-10-01T23:47:52.558Z,5.93
2022-10-01T23:50:37.835Z,5.78
2022-10-01T23:53:16.263Z,4.40
2022-10-01T23:56:09.672Z,3.83
2022-10-01T23:59:03.355Z,3.60
